sensor_id;sensor_type;location;lat;lon;timestamp;temperature;humidity
22444;DHT22;11389;50.864;4.330;2022-08-27T00:01:20;18.90;99.90
22444;DHT22;11389;50.864;4.330;2022-08-27T00:03:47;18.90;99.90
22444;DHT22;11389;50.864;4.330;2022-08-27T00:06:16;18.90;99.90
22444;DHT22;11389;50.864;4.330;2022-08-27T00:08:45;18.90;99.90
22444;DHT22;11389;50.864;4.330;2022-08-27T00:11:13;18.90;99.90
22444;DHT22;11389;50.864;4.330;2022-08-27T00:13:40;19.00;99.90
22444;DHT22;11389;50.864;4.330;2022-08-27T00:16:09;19.00;99.90
22444;DHT22;11389;50.864;4.330;2022-08-27T00:18:38;18.90;99.90
22444;DHT22;11389;50.864;4.330;2022-08-27T00:21:06;18.90;99.90
22444;DHT22;11389;50.864;4.330;2022-08-27T00:23:35;18.90;99.90
22444;DHT22;11389;50.864;4.330;2022-08-27T00:26:02;18.90;99.90
22444;DHT22;11389;50.864;4.330;2022-08-27T00:28:30;19.10;99.90
22444;DHT22;11389;50.864;4.330;2022-08-27T00:30:58;19.00;99.90
22444;DHT22;11389;50.864;4.330;2022-08-27T00:33:27;18.90;99.90
22444;DHT22;11389;50.864;4.330;2022-08-27T00:35:54;18.90;99.90
22444;DHT22;11389;50.864;4.330;2022-08-27T00:38:22;19.00;99.90
22444;DHT22;11389;50.864;4.330;2022-08-27T00:40:50;19.10;99.90
22444;DHT22;11389;50.864;4.330;2022-08-27T00:43:24;19.10;99.90
22444;DHT22;11389;50.864;4.330;2022-08-27T00:45:57;19.10;99.90
22444;DHT22;11389;50.864;4.330;2022-08-27T00:48:31;19.00;99.90
22444;DHT22;11389;50.864;4.330;2022-08-27T00:51:01;19.10;99.90
22444;DHT22;11389;50.864;4.330;2022-08-27T00:53:31;19.10;99.90
22444;DHT22;11389;50.864;4.330;2022-08-27T00:56:10;19.10;99.90
22444;DHT22;11389;50.864;4.330;2022-08-27T00:58:43;19.20;99.90
22444;DHT22;11389;50.864;4.330;2022-08-27T01:01:15;19.30;99.90
22444;DHT22;11389;50.864;4.330;2022-08-27T01:03:45;19.20;99.90
22444;DHT22;11389;50.864;4.330;2022-08-27T01:06:15;19.20;99.90
22444;DHT22;11389;50.864;4.330;2022-08-27T01:08:50;19.20;99.90
22444;DHT22;11389;50.864;4.330;2022-08-27T01:11:19;19.10;99.90
22444;DHT22;11389;50.864;4.330;2022-08-27T01:13:46;19.10;99.90
22444;DHT22;11389;50.864;4.330;2022-08-27T01:16:30;19.10;99.90
22444;DHT22;11389;50.864;4.330;2022-08-27T01:18:59;19.20;99.90
22444;DHT22;11389;50.864;4.330;2022-08-27T01:21:35;19.20;99.90
22444;DHT22;11389;50.864;4.330;2022-08-27T01:26:53;19.30;99.90
22444;DHT22;11389;50.864;4.330;2022-08-27T01:29:20;19.30;99.90
22444;DHT22;11389;50.864;4.330;2022-08-27T01:31:47;19.30;99.90
22444;DHT22;11389;50.864;4.330;2022-08-27T01:34:14;19.30;99.90
22444;DHT22;11389;50.864;4.330;2022-08-27T01:36:41;19.30;99.90
22444;DHT22;11389;50.864;4.330;2022-08-27T01:39:08;19.20;99.90
22444;DHT22;11389;50.864;4.330;2022-08-27T01:41:38;19.20;99.90
22444;DHT22;11389;50.864;4.330;2022-08-27T01:44:05;19.10;99.90
22444;DHT22;11389;50.864;4.330;2022-08-27T01:46:32;19.10;99.90
22444;DHT22;11389;50.864;4.330;2022-08-27T01:48:59;19.10;99.90
22444;DHT22;11389;50.864;4.330;2022-08-27T01:51:26;19.20;99.90
22444;DHT22;11389;50.864;4.330;2022-08-27T01:53:53;19.30;99.90
22444;DHT22;11389;50.864;4.330;2022-08-27T01:56:20;19.20;99.90
22444;DHT22;11389;50.864;4.330;2022-08-27T01:58:47;19.20;99.90
22444;DHT22;11389;50.864;4.330;2022-08-27T02:01:15;19.20;99.90
22444;DHT22;11389;50.864;4.330;2022-08-27T02:03:43;19.20;99.90
22444;DHT22;11389;50.864;4.330;2022-08-27T02:06:11;19.10;99.90
22444;DHT22;11389;50.864;4.330;2022-08-27T02:08:38;19.10;99.90
22444;DHT22;11389;50.864;4.330;2022-08-27T02:11:06;19.10;99.90
22444;DHT22;11389;50.864;4.330;2022-08-27T02:13:34;19.10;99.90
22444;DHT22;11389;50.864;4.330;2022-08-27T02:16:01;19.10;99.90
22444;DHT22;11389;50.864;4.330;2022-08-27T02:18:29;19.00;99.90
22444;DHT22;11389;50.864;4.330;2022-08-27T02:20:55;18.90;99.90
22444;DHT22;11389;50.864;4.330;2022-08-27T02:23:22;18.90;99.90
22444;DHT22;11389;50.864;4.330;2022-08-27T02:25:49;18.90;99.90
22444;DHT22;11389;50.864;4.330;2022-08-27T02:28:16;18.90;99.90
22444;DHT22;11389;50.864;4.330;2022-08-27T02:30:43;18.70;99.90
22444;DHT22;11389;50.864;4.330;2022-08-27T02:33:11;18.70;99.90
22444;DHT22;11389;50.864;4.330;2022-08-27T02:35:39;18.70;99.90
22444;DHT22;11389;50.864;4.330;2022-08-27T02:38:07;18.60;99.90
22444;DHT22;11389;50.864;4.330;2022-08-27T02:40:35;18.50;99.90
22444;DHT22;11389;50.864;4.330;2022-08-27T02:43:03;18.50;99.90
22444;DHT22;11389;50.864;4.330;2022-08-27T02:45:31;18.50;99.90
22444;DHT22;11389;50.864;4.330;2022-08-27T02:48:01;18.50;99.90
22444;DHT22;11389;50.864;4.330;2022-08-27T02:50:29;18.50;99.90
22444;DHT22;11389;50.864;4.330;2022-08-27T02:52:56;18.50;99.90
22444;DHT22;11389;50.864;4.330;2022-08-27T02:55:23;18.40;99.90
22444;DHT22;11389;50.864;4.330;2022-08-27T02:57:50;18.40;99.90
22444;DHT22;11389;50.864;4.330;2022-08-27T03:00:20;18.40;99.90
22444;DHT22;11389;50.864;4.330;2022-08-27T03:02:47;18.30;99.90
22444;DHT22;11389;50.864;4.330;2022-08-27T03:05:16;18.30;99.90
22444;DHT22;11389;50.864;4.330;2022-08-27T03:07:44;18.20;99.90
22444;DHT22;11389;50.864;4.330;2022-08-27T03:10:13;18.30;99.90
22444;DHT22;11389;50.864;4.330;2022-08-27T03:12:41;18.20;99.90
22444;DHT22;11389;50.864;4.330;2022-08-27T03:15:11;18.10;99.90
22444;DHT22;11389;50.864;4.330;2022-08-27T03:17:39;18.10;99.90
22444;DHT22;11389;50.864;4.330;2022-08-27T03:20:25;18.00;99.90
22444;DHT22;11389;50.864;4.330;2022-08-27T03:22:53;18.00;99.90
22444;DHT22;11389;50.864;4.330;2022-08-27T03:25:20;18.00;99.90
22444;DHT22;11389;50.864;4.330;2022-08-27T03:27:47;18.00;99.90
22444;DHT22;11389;50.864;4.330;2022-08-27T03:30:16;17.90;99.90
22444;DHT22;11389;50.864;4.330;2022-08-27T03:32:44;17.90;99.90
22444;DHT22;11389;50.864;4.330;2022-08-27T03:35:12;17.90;99.90
22444;DHT22;11389;50.864;4.330;2022-08-27T03:37:39;17.90;99.90
22444;DHT22;11389;50.864;4.330;2022-08-27T03:40:07;17.90;99.90
22444;DHT22;11389;50.864;4.330;2022-08-27T03:42:36;17.90;99.90
22444;DHT22;11389;50.864;4.330;2022-08-27T03:45:04;17.90;99.90
22444;DHT22;11389;50.864;4.330;2022-08-27T03:47:31;17.90;99.90
22444;DHT22;11389;50.864;4.330;2022-08-27T03:49:58;17.80;99.90
22444;DHT22;11389;50.864;4.330;2022-08-27T03:52:27;17.80;99.90
22444;DHT22;11389;50.864;4.330;2022-08-27T03:54:54;17.80;99.90
22444;DHT22;11389;50.864;4.330;2022-08-27T03:57:21;17.80;99.90
22444;DHT22;11389;50.864;4.330;2022-08-27T03:59:48;17.90;99.90
22444;DHT22;11389;50.864;4.330;2022-08-27T04:02:19;17.80;99.90
22444;DHT22;11389;50.864;4.330;2022-08-27T04:04:46;17.90;99.90
22444;DHT22;11389;50.864;4.330;2022-08-27T04:07:13;17.80;99.90
22444;DHT22;11389;50.864;4.330;2022-08-27T04:09:40;17.90;99.90
22444;DHT22;11389;50.864;4.330;2022-08-27T04:12:08;17.90;99.90
22444;DHT22;11389;50.864;4.330;2022-08-27T04:14:34;18.00;99.90
22444;DHT22;11389;50.864;4.330;2022-08-27T04:17:01;18.00;99.90
22444;DHT22;11389;50.864;4.330;2022-08-27T04:19:28;17.90;99.90
22444;DHT22;11389;50.864;4.330;2022-08-27T04:22:00;17.90;99.90
22444;DHT22;11389;50.864;4.330;2022-08-27T04:24:29;17.90;99.90
22444;DHT22;11389;50.864;4.330;2022-08-27T04:26:56;17.90;99.90
22444;DHT22;11389;50.864;4.330;2022-08-27T04:29:23;17.90;99.90
22444;DHT22;11389;50.864;4.330;2022-08-27T04:31:50;17.90;99.90
22444;DHT22;11389;50.864;4.330;2022-08-27T04:34:17;17.90;99.90
22444;DHT22;11389;50.864;4.330;2022-08-27T04:36:45;17.90;99.90
22444;DHT22;11389;50.864;4.330;2022-08-27T04:39:13;18.00;99.90
22444;DHT22;11389;50.864;4.330;2022-08-27T04:41:41;18.00;99.90
22444;DHT22;11389;50.864;4.330;2022-08-27T04:44:09;18.00;99.90
22444;DHT22;11389;50.864;4.330;2022-08-27T04:46:39;17.90;99.90
22444;DHT22;11389;50.864;4.330;2022-08-27T04:49:13;17.90;99.90
22444;DHT22;11389;50.864;4.330;2022-08-27T04:51:40;17.80;99.90
22444;DHT22;11389;50.864;4.330;2022-08-27T04:54:09;17.80;99.90
22444;DHT22;11389;50.864;4.330;2022-08-27T04:56:36;17.80;99.90
22444;DHT22;11389;50.864;4.330;2022-08-27T04:59:06;17.80;99.90
22444;DHT22;11389;50.864;4.330;2022-08-27T05:01:34;17.80;99.90
22444;DHT22;11389;50.864;4.330;2022-08-27T05:04:02;17.80;99.90
22444;DHT22;11389;50.864;4.330;2022-08-27T05:06:30;17.80;99.90
22444;DHT22;11389;50.864;4.330;2022-08-27T05:08:57;17.80;99.90
22444;DHT22;11389;50.864;4.330;2022-08-27T05:11:25;17.80;99.90
22444;DHT22;11389;50.864;4.330;2022-08-27T05:13:55;17.80;99.90
22444;DHT22;11389;50.864;4.330;2022-08-27T05:16:22;17.80;99.90
22444;DHT22;11389;50.864;4.330;2022-08-27T05:18:50;17.90;99.90
22444;DHT22;11389;50.864;4.330;2022-08-27T05:21:27;17.90;99.90
22444;DHT22;11389;50.864;4.330;2022-08-27T05:23:57;18.00;99.90
22444;DHT22;11389;50.864;4.330;2022-08-27T05:26:25;18.00;99.90
22444;DHT22;11389;50.864;4.330;2022-08-27T05:28:53;18.10;99.90
22444;DHT22;11389;50.864;4.330;2022-08-27T05:31:21;18.10;99.90
22444;DHT22;11389;50.864;4.330;2022-08-27T05:33:48;18.20;99.90
22444;DHT22;11389;50.864;4.330;2022-08-27T05:36:20;18.20;99.90
22444;DHT22;11389;50.864;4.330;2022-08-27T05:38:48;18.30;99.90
22444;DHT22;11389;50.864;4.330;2022-08-27T05:41:18;18.40;99.90
22444;DHT22;11389;50.864;4.330;2022-08-27T05:43:46;18.50;99.90
22444;DHT22;11389;50.864;4.330;2022-08-27T05:46:19;18.50;99.90
22444;DHT22;11389;50.864;4.330;2022-08-27T05:48:48;18.60;99.90
22444;DHT22;11389;50.864;4.330;2022-08-27T05:51:24;18.60;99.90
22444;DHT22;11389;50.864;4.330;2022-08-27T05:54:02;18.70;99.90
22444;DHT22;11389;50.864;4.330;2022-08-27T05:56:37;18.70;99.90
22444;DHT22;11389;50.864;4.330;2022-08-27T05:59:05;18.80;99.90
22444;DHT22;11389;50.864;4.330;2022-08-27T06:01:53;18.90;99.90
22444;DHT22;11389;50.864;4.330;2022-08-27T06:04:21;19.00;99.90
22444;DHT22;11389;50.864;4.330;2022-08-27T06:06:50;19.10;99.90
22444;DHT22;11389;50.864;4.330;2022-08-27T06:09:22;19.30;99.90
22444;DHT22;11389;50.864;4.330;2022-08-27T06:11:51;19.40;99.90
22444;DHT22;11389;50.864;4.330;2022-08-27T06:14:18;19.50;99.90
22444;DHT22;11389;50.864;4.330;2022-08-27T06:16:46;19.60;99.90
22444;DHT22;11389;50.864;4.330;2022-08-27T06:19:13;19.60;99.90
22444;DHT22;11389;50.864;4.330;2022-08-27T06:21:41;19.70;99.90
22444;DHT22;11389;50.864;4.330;2022-08-27T06:24:09;19.70;99.90
22444;DHT22;11389;50.864;4.330;2022-08-27T06:26:40;19.90;99.90
22444;DHT22;11389;50.864;4.330;2022-08-27T06:29:08;19.90;99.90
22444;DHT22;11389;50.864;4.330;2022-08-27T06:31:36;20.00;99.90
22444;DHT22;11389;50.864;4.330;2022-08-27T06:34:07;20.10;99.90
22444;DHT22;11389;50.864;4.330;2022-08-27T06:36:38;20.10;99.90
22444;DHT22;11389;50.864;4.330;2022-08-27T06:39:06;20.00;99.90
22444;DHT22;11389;50.864;4.330;2022-08-27T06:41:33;19.90;99.90
22444;DHT22;11389;50.864;4.330;2022-08-27T06:44:01;20.00;99.90
22444;DHT22;11389;50.864;4.330;2022-08-27T06:46:28;20.10;99.90
22444;DHT22;11389;50.864;4.330;2022-08-27T06:48:57;20.00;99.90
22444;DHT22;11389;50.864;4.330;2022-08-27T06:51:28;20.00;99.90
22444;DHT22;11389;50.864;4.330;2022-08-27T06:53:58;20.10;99.90
22444;DHT22;11389;50.864;4.330;2022-08-27T06:56:26;20.00;99.90
22444;DHT22;11389;50.864;4.330;2022-08-27T06:58:58;20.00;99.90
22444;DHT22;11389;50.864;4.330;2022-08-27T07:01:28;19.90;99.90
22444;DHT22;11389;50.864;4.330;2022-08-27T07:04:02;19.90;99.90
22444;DHT22;11389;50.864;4.330;2022-08-27T07:06:32;20.00;99.90
22444;DHT22;11389;50.864;4.330;2022-08-27T07:08:59;19.90;99.90
22444;DHT22;11389;50.864;4.330;2022-08-27T07:11:28;20.00;99.90
22444;DHT22;11389;50.864;4.330;2022-08-27T07:13:57;20.00;99.90
22444;DHT22;11389;50.864;4.330;2022-08-27T07:16:27;20.10;99.90
22444;DHT22;11389;50.864;4.330;2022-08-27T07:18:56;20.00;99.90
22444;DHT22;11389;50.864;4.330;2022-08-27T07:21:29;20.00;99.90
22444;DHT22;11389;50.864;4.330;2022-08-27T07:23:56;20.10;99.90
22444;DHT22;11389;50.864;4.330;2022-08-27T07:26:32;20.20;99.90
22444;DHT22;11389;50.864;4.330;2022-08-27T07:29:00;20.30;99.90
22444;DHT22;11389;50.864;4.330;2022-08-27T07:31:27;20.30;99.90
22444;DHT22;11389;50.864;4.330;2022-08-27T07:33:54;20.30;99.90
22444;DHT22;11389;50.864;4.330;2022-08-27T07:36:22;20.30;99.90
22444;DHT22;11389;50.864;4.330;2022-08-27T07:38:50;20.40;99.90
22444;DHT22;11389;50.864;4.330;2022-08-27T07:41:30;20.40;99.90
22444;DHT22;11389;50.864;4.330;2022-08-27T07:44:00;20.50;99.90
22444;DHT22;11389;50.864;4.330;2022-08-27T07:46:46;20.50;99.90
22444;DHT22;11389;50.864;4.330;2022-08-27T07:49:16;20.60;99.90
22444;DHT22;11389;50.864;4.330;2022-08-27T07:51:44;20.60;99.90
22444;DHT22;11389;50.864;4.330;2022-08-27T07:54:11;20.50;99.90
22444;DHT22;11389;50.864;4.330;2022-08-27T07:56:39;20.50;99.90
22444;DHT22;11389;50.864;4.330;2022-08-27T07:59:06;20.60;99.90
22444;DHT22;11389;50.864;4.330;2022-08-27T08:01:34;20.80;99.90
22444;DHT22;11389;50.864;4.330;2022-08-27T08:04:01;21.00;99.90
22444;DHT22;11389;50.864;4.330;2022-08-27T08:06:28;21.10;99.90
22444;DHT22;11389;50.864;4.330;2022-08-27T08:08:55;21.10;99.90
22444;DHT22;11389;50.864;4.330;2022-08-27T08:11:22;21.30;99.90
22444;DHT22;11389;50.864;4.330;2022-08-27T08:13:49;21.40;99.90
22444;DHT22;11389;50.864;4.330;2022-08-27T08:16:16;21.50;99.90
22444;DHT22;11389;50.864;4.330;2022-08-27T08:18:43;21.50;99.90
22444;DHT22;11389;50.864;4.330;2022-08-27T08:21:12;21.50;99.90
22444;DHT22;11389;50.864;4.330;2022-08-27T08:23:41;21.50;99.90
22444;DHT22;11389;50.864;4.330;2022-08-27T08:26:10;21.60;99.90
22444;DHT22;11389;50.864;4.330;2022-08-27T08:28:38;21.70;99.90
22444;DHT22;11389;50.864;4.330;2022-08-27T08:31:06;22.00;99.90
22444;DHT22;11389;50.864;4.330;2022-08-27T08:33:34;22.30;99.90
22444;DHT22;11389;50.864;4.330;2022-08-27T08:36:10;22.30;99.90
22444;DHT22;11389;50.864;4.330;2022-08-27T08:38:38;22.40;99.90
22444;DHT22;11389;50.864;4.330;2022-08-27T08:41:26;22.40;99.90
22444;DHT22;11389;50.864;4.330;2022-08-27T08:43:58;22.40;99.90
22444;DHT22;11389;50.864;4.330;2022-08-27T08:46:55;22.60;99.90
22444;DHT22;11389;50.864;4.330;2022-08-27T08:49:43;22.80;99.90
22444;DHT22;11389;50.864;4.330;2022-08-27T09:00:36;23.70;99.90
22444;DHT22;11389;50.864;4.330;2022-08-27T09:03:05;23.70;99.90
22444;DHT22;11389;50.864;4.330;2022-08-27T09:05:35;23.70;99.90
22444;DHT22;11389;50.864;4.330;2022-08-27T09:08:33;23.90;99.90
22444;DHT22;11389;50.864;4.330;2022-08-27T09:14:02;24.00;99.80
22444;DHT22;11389;50.864;4.330;2022-08-27T09:16:30;24.10;99.90
22444;DHT22;11389;50.864;4.330;2022-08-27T09:19:01;24.10;99.40
22444;DHT22;11389;50.864;4.330;2022-08-27T09:21:50;24.20;99.40
22444;DHT22;11389;50.864;4.330;2022-08-27T09:27:22;24.10;99.30
22444;DHT22;11389;50.864;4.330;2022-08-27T09:29:52;24.10;99.10
22444;DHT22;11389;50.864;4.330;2022-08-27T09:32:25;24.20;98.90
22444;DHT22;11389;50.864;4.330;2022-08-27T09:34:57;24.70;98.80
22444;DHT22;11389;50.864;4.330;2022-08-27T09:37:30;25.10;97.80
22444;DHT22;11389;50.864;4.330;2022-08-27T09:40:08;25.50;96.40
22444;DHT22;11389;50.864;4.330;2022-08-27T09:42:58;25.80;95.60
22444;DHT22;11389;50.864;4.330;2022-08-27T09:45:30;25.90;95.30
22444;DHT22;11389;50.864;4.330;2022-08-27T09:48:03;26.10;94.90
22444;DHT22;11389;50.864;4.330;2022-08-27T09:50:44;26.10;94.60
22444;DHT22;11389;50.864;4.330;2022-08-27T09:56:07;25.50;95.00
22444;DHT22;11389;50.864;4.330;2022-08-27T10:01:27;24.90;96.40
22444;DHT22;11389;50.864;4.330;2022-08-27T10:04:09;24.70;97.00
22444;DHT22;11389;50.864;4.330;2022-08-27T10:06:37;24.40;97.70
22444;DHT22;11389;50.864;4.330;2022-08-27T10:09:16;24.20;97.90
22444;DHT22;11389;50.864;4.330;2022-08-27T10:14:30;23.90;98.70
22444;DHT22;11389;50.864;4.330;2022-08-27T10:26:33;24.70;97.90
22444;DHT22;11389;50.864;4.330;2022-08-27T10:29:15;25.00;97.20
22444;DHT22;11389;50.864;4.330;2022-08-27T10:32:03;25.30;96.90
22444;DHT22;11389;50.864;4.330;2022-08-27T10:34:40;25.50;96.60
22444;DHT22;11389;50.864;4.330;2022-08-27T10:40:10;25.80;96.40
22444;DHT22;11389;50.864;4.330;2022-08-27T10:53:03;27.90;93.00
22444;DHT22;11389;50.864;4.330;2022-08-27T10:55:40;27.90;92.10
22444;DHT22;11389;50.864;4.330;2022-08-27T11:04:04;26.70;92.90
22444;DHT22;11389;50.864;4.330;2022-08-27T11:09:31;26.30;93.50
22444;DHT22;11389;50.864;4.330;2022-08-27T11:12:05;26.30;93.70
22444;DHT22;11389;50.864;4.330;2022-08-27T11:14:52;26.40;93.80
22444;DHT22;11389;50.864;4.330;2022-08-27T11:17:36;26.30;93.70
22444;DHT22;11389;50.864;4.330;2022-08-27T11:20:24;26.20;93.80
22444;DHT22;11389;50.864;4.330;2022-08-27T11:23:03;26.10;93.80
22444;DHT22;11389;50.864;4.330;2022-08-27T11:25:55;26.20;93.60
22444;DHT22;11389;50.864;4.330;2022-08-27T11:28:47;26.20;93.60
22444;DHT22;11389;50.864;4.330;2022-08-27T11:31:21;26.10;93.70
22444;DHT22;11389;50.864;4.330;2022-08-27T11:34:26;26.00;93.40
22444;DHT22;11389;50.864;4.330;2022-08-27T11:44:41;26.00;93.40
22444;DHT22;11389;50.864;4.330;2022-08-27T11:47:21;26.00;93.30
22444;DHT22;11389;50.864;4.330;2022-08-27T11:49:55;26.10;93.30
22444;DHT22;11389;50.864;4.330;2022-08-27T11:55:22;26.50;93.00
22444;DHT22;11389;50.864;4.330;2022-08-27T11:58:04;26.70;93.00
22444;DHT22;11389;50.864;4.330;2022-08-27T12:00:34;27.00;92.30
22444;DHT22;11389;50.864;4.330;2022-08-27T12:06:02;26.90;92.20
22444;DHT22;11389;50.864;4.330;2022-08-27T12:08:32;26.80;92.60
22444;DHT22;11389;50.864;4.330;2022-08-27T12:11:11;27.00;92.70
22444;DHT22;11389;50.864;4.330;2022-08-27T12:24:50;27.30;92.00
22444;DHT22;11389;50.864;4.330;2022-08-27T12:35:49;27.60;91.80
22444;DHT22;11389;50.864;4.330;2022-08-27T12:41:00;28.00;91.40
22444;DHT22;11389;50.864;4.330;2022-08-27T12:43:36;28.10;90.50
22444;DHT22;11389;50.864;4.330;2022-08-27T12:46:16;28.00;90.10
22444;DHT22;11389;50.864;4.330;2022-08-27T12:48:53;27.80;90.50
22444;DHT22;11389;50.864;4.330;2022-08-27T12:51:28;27.60;90.60
22444;DHT22;11389;50.864;4.330;2022-08-27T12:54:09;27.40;90.80
22444;DHT22;11389;50.864;4.330;2022-08-27T13:05:03;27.70;90.80
22444;DHT22;11389;50.864;4.330;2022-08-27T13:07:42;27.80;90.70
22444;DHT22;11389;50.864;4.330;2022-08-27T13:10:26;27.70;90.30
22444;DHT22;11389;50.864;4.330;2022-08-27T13:13:08;27.60;90.60
22444;DHT22;11389;50.864;4.330;2022-08-27T13:15:50;27.70;90.60
22444;DHT22;11389;50.864;4.330;2022-08-27T13:18:18;27.40;90.90
22444;DHT22;11389;50.864;4.330;2022-08-27T13:20:48;27.40;91.10
22444;DHT22;11389;50.864;4.330;2022-08-27T13:23:20;27.40;90.90
22444;DHT22;11389;50.864;4.330;2022-08-27T13:25:55;27.40;90.80
22444;DHT22;11389;50.864;4.330;2022-08-27T13:28:25;27.30;91.00
22444;DHT22;11389;50.864;4.330;2022-08-27T13:30:54;27.00;91.10
22444;DHT22;11389;50.864;4.330;2022-08-27T13:33:28;26.90;91.00
22444;DHT22;11389;50.864;4.330;2022-08-27T13:35:56;26.80;91.10
22444;DHT22;11389;50.864;4.330;2022-08-27T13:38:30;26.70;91.10
22444;DHT22;11389;50.864;4.330;2022-08-27T13:41:03;26.70;91.10
22444;DHT22;11389;50.864;4.330;2022-08-27T13:43:41;26.50;91.00
22444;DHT22;11389;50.864;4.330;2022-08-27T13:46:17;26.40;91.50
22444;DHT22;11389;50.864;4.330;2022-08-27T13:48:48;26.30;91.70
22444;DHT22;11389;50.864;4.330;2022-08-27T13:51:27;26.30;91.60
22444;DHT22;11389;50.864;4.330;2022-08-27T13:53:55;26.20;91.90
22444;DHT22;11389;50.864;4.330;2022-08-27T13:59:25;26.10;92.00
22444;DHT22;11389;50.864;4.330;2022-08-27T14:04:48;26.00;92.30
22444;DHT22;11389;50.864;4.330;2022-08-27T14:07:30;25.90;92.20
22444;DHT22;11389;50.864;4.330;2022-08-27T14:10:05;25.80;92.40
22444;DHT22;11389;50.864;4.330;2022-08-27T14:12:36;25.80;92.30
22444;DHT22;11389;50.864;4.330;2022-08-27T14:15:33;25.90;92.40
22444;DHT22;11389;50.864;4.330;2022-08-27T14:18:01;25.90;92.30
22444;DHT22;11389;50.864;4.330;2022-08-27T14:20:29;25.80;92.30
22444;DHT22;11389;50.864;4.330;2022-08-27T14:22:56;25.70;92.60
22444;DHT22;11389;50.864;4.330;2022-08-27T14:25:25;25.60;92.90
22444;DHT22;11389;50.864;4.330;2022-08-27T14:27:53;25.70;92.60
22444;DHT22;11389;50.864;4.330;2022-08-27T14:30:24;25.60;92.60
22444;DHT22;11389;50.864;4.330;2022-08-27T14:32:59;25.70;92.60
22444;DHT22;11389;50.864;4.330;2022-08-27T14:35:31;25.70;92.50
22444;DHT22;11389;50.864;4.330;2022-08-27T14:38:12;25.60;92.80
22444;DHT22;11389;50.864;4.330;2022-08-27T14:40:41;25.60;92.80
22444;DHT22;11389;50.864;4.330;2022-08-27T14:43:08;25.70;92.80
22444;DHT22;11389;50.864;4.330;2022-08-27T14:45:37;25.80;92.50
22444;DHT22;11389;50.864;4.330;2022-08-27T14:48:07;25.90;92.20
22444;DHT22;11389;50.864;4.330;2022-08-27T14:50:45;25.80;92.20
22444;DHT22;11389;50.864;4.330;2022-08-27T14:53:13;25.90;92.40
22444;DHT22;11389;50.864;4.330;2022-08-27T14:55:40;26.00;92.10
22444;DHT22;11389;50.864;4.330;2022-08-27T14:58:12;26.20;92.10
22444;DHT22;11389;50.864;4.330;2022-08-27T15:00:40;26.30;91.80
22444;DHT22;11389;50.864;4.330;2022-08-27T15:03:09;26.30;91.90
22444;DHT22;11389;50.864;4.330;2022-08-27T15:05:37;26.40;92.10
22444;DHT22;11389;50.864;4.330;2022-08-27T15:08:06;26.40;92.00
22444;DHT22;11389;50.864;4.330;2022-08-27T15:10:38;26.50;92.10
22444;DHT22;11389;50.864;4.330;2022-08-27T15:13:06;26.30;92.10
22444;DHT22;11389;50.864;4.330;2022-08-27T15:15:35;26.40;92.10
22444;DHT22;11389;50.864;4.330;2022-08-27T15:18:05;26.50;91.40
22444;DHT22;11389;50.864;4.330;2022-08-27T15:20:32;26.50;91.70
22444;DHT22;11389;50.864;4.330;2022-08-27T15:23:00;26.40;91.40
22444;DHT22;11389;50.864;4.330;2022-08-27T15:25:28;26.40;91.10
22444;DHT22;11389;50.864;4.330;2022-08-27T15:27:56;26.40;91.30
22444;DHT22;11389;50.864;4.330;2022-08-27T15:30:26;26.20;91.30
22444;DHT22;11389;50.864;4.330;2022-08-27T15:32:54;26.10;91.30
22444;DHT22;11389;50.864;4.330;2022-08-27T15:35:23;26.10;91.30
22444;DHT22;11389;50.864;4.330;2022-08-27T15:37:56;26.20;91.20
22444;DHT22;11389;50.864;4.330;2022-08-27T15:40:25;26.20;91.60
22444;DHT22;11389;50.864;4.330;2022-08-27T15:42:57;26.10;91.60
22444;DHT22;11389;50.864;4.330;2022-08-27T15:45:25;25.90;91.60
22444;DHT22;11389;50.864;4.330;2022-08-27T15:47:55;25.80;91.20
22444;DHT22;11389;50.864;4.330;2022-08-27T15:50:22;25.70;91.00
22444;DHT22;11389;50.864;4.330;2022-08-27T15:52:55;25.60;91.30
22444;DHT22;11389;50.864;4.330;2022-08-27T15:55:30;25.40;91.40
22444;DHT22;11389;50.864;4.330;2022-08-27T15:57:57;25.40;91.30
22444;DHT22;11389;50.864;4.330;2022-08-27T16:00:26;25.40;91.60
22444;DHT22;11389;50.864;4.330;2022-08-27T16:02:55;25.40;91.70
22444;DHT22;11389;50.864;4.330;2022-08-27T16:05:23;25.20;91.70
22444;DHT22;11389;50.864;4.330;2022-08-27T16:07:51;25.30;91.70
22444;DHT22;11389;50.864;4.330;2022-08-27T16:10:19;25.40;91.90
22444;DHT22;11389;50.864;4.330;2022-08-27T16:12:46;25.30;91.90
22444;DHT22;11389;50.864;4.330;2022-08-27T16:15:13;25.20;92.10
22444;DHT22;11389;50.864;4.330;2022-08-27T16:17:41;25.30;92.20
22444;DHT22;11389;50.864;4.330;2022-08-27T16:20:13;25.30;92.30
22444;DHT22;11389;50.864;4.330;2022-08-27T16:22:43;25.20;92.50
22444;DHT22;11389;50.864;4.330;2022-08-27T16:25:10;25.10;92.70
22444;DHT22;11389;50.864;4.330;2022-08-27T16:27:44;25.20;92.70
22444;DHT22;11389;50.864;4.330;2022-08-27T16:30:11;25.30;92.80
22444;DHT22;11389;50.864;4.330;2022-08-27T16:32:39;25.20;92.90
22444;DHT22;11389;50.864;4.330;2022-08-27T16:35:06;25.20;92.90
22444;DHT22;11389;50.864;4.330;2022-08-27T16:37:34;25.40;93.00
22444;DHT22;11389;50.864;4.330;2022-08-27T16:40:02;25.40;92.90
22444;DHT22;11389;50.864;4.330;2022-08-27T16:42:29;25.40;92.80
22444;DHT22;11389;50.864;4.330;2022-08-27T16:44:56;25.40;92.80
22444;DHT22;11389;50.864;4.330;2022-08-27T16:47:23;25.30;92.90
22444;DHT22;11389;50.864;4.330;2022-08-27T16:49:50;25.20;93.00
22444;DHT22;11389;50.864;4.330;2022-08-27T16:52:50;25.10;93.30
22444;DHT22;11389;50.864;4.330;2022-08-27T16:55:17;25.20;92.90
22444;DHT22;11389;50.864;4.330;2022-08-27T16:57:45;25.30;92.60
22444;DHT22;11389;50.864;4.330;2022-08-27T17:00:13;25.30;92.60
22444;DHT22;11389;50.864;4.330;2022-08-27T17:02:40;25.20;92.40
22444;DHT22;11389;50.864;4.330;2022-08-27T17:05:07;25.50;92.30
22444;DHT22;11389;50.864;4.330;2022-08-27T17:07:54;26.30;91.60
22444;DHT22;11389;50.864;4.330;2022-08-27T17:10:21;27.10;90.40
22444;DHT22;11389;50.864;4.330;2022-08-27T17:12:48;27.50;90.10
22444;DHT22;11389;50.864;4.330;2022-08-27T17:15:16;28.20;88.90
22444;DHT22;11389;50.864;4.330;2022-08-27T17:17:44;28.70;88.10
22444;DHT22;11389;50.864;4.330;2022-08-27T17:20:12;29.10;87.10
22444;DHT22;11389;50.864;4.330;2022-08-27T17:22:41;29.10;87.30
22444;DHT22;11389;50.864;4.330;2022-08-27T17:25:09;29.80;86.20
22444;DHT22;11389;50.864;4.330;2022-08-27T17:27:36;29.90;84.90
22444;DHT22;11389;50.864;4.330;2022-08-27T17:30:05;29.90;84.30
22444;DHT22;11389;50.864;4.330;2022-08-27T17:32:36;29.70;83.90
22444;DHT22;11389;50.864;4.330;2022-08-27T17:35:07;29.40;83.50
22444;DHT22;11389;50.864;4.330;2022-08-27T17:37:37;29.20;83.30
22444;DHT22;11389;50.864;4.330;2022-08-27T17:40:04;28.90;83.50